Terminal Aerodrome Forecast
Issued by NWS

Home | Current Version | Previous Version | Text Only | Print | Product List | Glossary On
Versions: 1 2 3 4 5 6 7 8 9 10 11 12 13 14 15 16 17
000
FTUS41 KCAR 250548
TAFHUL
TAF
KHUL 250548Z 2506/2606 19006KT P6SM OVC015
     FM250800 19005KT P6SM -DZ OVC008
     FM251000 19005KT 6SM -DZ BKN005
     FM251300 19007KT P6SM BKN120
     FM252100 22008KT 3SM -SHRA SCT025 BKN060
     FM260000 19007KT P6SM BKN070
     FM260300 22005KT P6SM BKN008=

USA.gov is the U.S. government's official web portal to all federal, state and local government web resources and services.